createdAt,value
2018-12-01T00:00:26.449Z,10.07
2018-12-01T00:02:53.626Z,10.33
2018-12-01T00:05:20.824Z,10.57
2018-12-01T00:07:48.214Z,9.30
2018-12-01T00:10:15.429Z,8.60
2018-12-01T00:12:42.629Z,8.60
2018-12-01T00:15:10.597Z,8.73
2018-12-01T00:17:37.800Z,8.63
2018-12-01T00:20:07.476Z,6.87
2018-12-01T00:22:35.499Z,8.97
2018-12-01T00:25:02.753Z,7.43
2018-12-01T00:27:29.929Z,7.50
2018-12-01T00:29:57.105Z,7.27
2018-12-01T00:32:24.305Z,7.57
2018-12-01T00:34:51.461Z,6.80
2018-12-01T00:37:18.672Z,7.57
2018-12-01T00:39:45.858Z,5.73
2018-12-01T00:42:13.025Z,5.77
2018-12-01T00:44:40.225Z,7.70
2018-12-01T00:47:07.417Z,5.40
2018-12-01T00:49:34.613Z,6.30
2018-12-01T00:52:02.084Z,6.73
2018-12-01T00:54:29.418Z,6.57
2018-12-01T00:56:56.621Z,6.83
2018-12-01T00:59:23.817Z,6.13
2018-12-01T01:01:51.028Z,5.97
2018-12-01T01:04:18.216Z,5.70
2018-12-01T01:06:45.413Z,6.00
2018-12-01T01:09:12.585Z,8.77
2018-12-01T01:11:39.776Z,5.33
2018-12-01T01:14:06.976Z,6.30
2018-12-01T01:16:34.169Z,7.97
2018-12-01T01:19:01.348Z,7.50
2018-12-01T01:21:28.604Z,7.23
2018-12-01T01:23:55.810Z,6.30
2018-12-01T01:26:22.981Z,6.90
2018-12-01T01:28:50.166Z,6.20
2018-12-01T01:31:17.375Z,6.07
2018-12-01T01:33:44.557Z,6.83
2018-12-01T01:36:11.757Z,8.00
2018-12-01T01:38:38.934Z,7.27
2018-12-01T01:41:07.007Z,6.13
2018-12-01T01:43:34.356Z,7.30
2018-12-01T01:46:02.475Z,7.50
2018-12-01T01:48:29.638Z,6.30
2018-12-01T01:50:56.858Z,6.50
2018-12-01T01:53:24.025Z,6.20
2018-12-01T01:55:51.229Z,7.80
2018-12-01T01:58:18.416Z,6.33
2018-12-01T02:00:45.623Z,6.60
2018-12-01T02:03:12.789Z,8.30
2018-12-01T02:05:40.009Z,7.17
2018-12-01T02:08:07.186Z,6.97
2018-12-01T02:10:34.359Z,6.30
2018-12-01T02:13:02.070Z,5.80
2018-12-01T02:15:29.282Z,5.63
2018-12-01T02:17:56.483Z,5.80
2018-12-01T02:20:23.637Z,5.63
2018-12-01T02:22:50.814Z,7.23
2018-12-01T02:25:18.328Z,7.40
2018-12-01T02:27:45.707Z,6.10
2018-12-01T02:30:17.402Z,6.13
2018-12-01T02:32:44.599Z,5.70
2018-12-01T02:35:12.518Z,6.40
2018-12-01T02:37:39.714Z,6.37
2018-12-01T02:40:07.914Z,6.10
2018-12-01T02:42:35.102Z,5.77
2018-12-01T02:45:08.361Z,7.00
2018-12-01T02:47:35.560Z,4.23
2018-12-01T02:50:03.060Z,7.20
2018-12-01T02:52:30.291Z,6.70
2018-12-01T02:54:57.466Z,6.10
2018-12-01T02:57:24.687Z,6.90
2018-12-01T02:59:51.884Z,5.70
2018-12-01T03:02:19.095Z,7.37
2018-12-01T03:04:46.926Z,6.57
2018-12-01T03:07:14.110Z,6.37
2018-12-01T03:09:42.207Z,6.20
2018-12-01T03:12:09.379Z,6.53
2018-12-01T03:14:36.549Z,6.20
2018-12-01T03:17:03.749Z,5.90
2018-12-01T03:19:30.933Z,5.60
2018-12-01T03:21:58.126Z,6.10
2018-12-01T03:24:25.284Z,5.90
2018-12-01T03:26:52.475Z,6.07
2018-12-01T03:29:19.676Z,5.50
2018-12-01T03:31:46.844Z,6.00
2018-12-01T03:34:14.021Z,6.47
2018-12-01T03:36:41.213Z,5.80
2018-12-01T03:39:08.772Z,5.60
2018-12-01T03:41:36.064Z,4.90
2018-12-01T03:44:03.264Z,5.77
2018-12-01T03:46:30.460Z,5.73
2018-12-01T03:48:57.648Z,4.40
2018-12-01T03:51:24.812Z,6.20
2018-12-01T03:53:51.992Z,5.87
2018-12-01T03:56:19.153Z,4.93
2018-12-01T03:58:46.361Z,4.10
2018-12-01T04:01:13.545Z,5.57
2018-12-01T04:03:40.711Z,6.17
2018-12-01T04:06:07.899Z,4.80
2018-12-01T04:08:35.081Z,4.80
2018-12-01T04:11:03.105Z,4.70
2018-12-01T04:13:30.455Z,4.80
2018-12-01T04:15:57.642Z,4.33
2018-12-01T04:18:24.825Z,5.77
2018-12-01T04:20:52.004Z,5.57
2018-12-01T04:23:19.190Z,6.50
2018-12-01T04:25:46.373Z,4.53
2018-12-01T04:28:13.564Z,5.27
2018-12-01T04:30:40.749Z,5.77
2018-12-01T04:33:07.938Z,4.73
2018-12-01T04:35:35.136Z,5.27
2018-12-01T04:38:02.648Z,5.00
2018-12-01T04:40:29.857Z,4.60
2018-12-01T04:42:57.021Z,5.63
2018-12-01T04:45:24.245Z,4.53
2018-12-01T04:47:51.443Z,5.50
2018-12-01T04:50:18.752Z,5.90
2018-12-01T04:52:46.498Z,4.97
2018-12-01T04:55:14.201Z,5.10
2018-12-01T04:57:41.400Z,5.10
2018-12-01T05:00:10.202Z,4.87
2018-12-01T05:02:37.497Z,4.70
2018-12-01T05:05:05.430Z,5.27
2018-12-01T05:07:32.604Z,5.00
2018-12-01T05:09:59.794Z,5.30
2018-12-01T05:12:26.965Z,4.97
2018-12-01T05:14:54.152Z,4.80
2018-12-01T05:17:21.321Z,4.20
2018-12-01T05:19:48.513Z,6.00
2018-12-01T05:22:15.694Z,3.77
2018-12-01T05:24:42.889Z,4.67
2018-12-01T05:27:10.062Z,4.97
2018-12-01T05:29:37.228Z,5.30
2018-12-01T05:32:04.741Z,6.03
2018-12-01T05:34:38.420Z,4.10
2018-12-01T05:37:05.597Z,5.53
2018-12-01T05:39:32.757Z,5.37
2018-12-01T05:41:59.955Z,5.57
2018-12-01T05:47:01.068Z,5.00
2018-12-01T05:49:28.252Z,4.90
2018-12-01T05:51:55.433Z,4.70
2018-12-01T05:54:22.609Z,3.97
2018-12-01T05:56:49.777Z,5.03
2018-12-01T05:59:16.964Z,4.63
2018-12-01T06:01:44.159Z,4.93
2018-12-01T06:04:11.325Z,5.30
2018-12-01T06:06:38.517Z,5.83
2018-12-01T06:09:06.823Z,4.37
2018-12-01T06:11:34.013Z,6.47
2018-12-01T06:14:01.433Z,5.93
2018-12-01T06:16:28.635Z,8.80
2018-12-01T06:18:55.789Z,5.40
2018-12-01T06:21:23.032Z,5.50
2018-12-01T06:23:50.195Z,5.73
2018-12-01T06:26:17.353Z,5.03
2018-12-01T06:28:44.583Z,4.50
2018-12-01T06:31:11.754Z,5.20
2018-12-01T06:33:38.969Z,5.90
2018-12-01T06:36:06.153Z,4.90
2018-12-01T06:38:33.353Z,4.00
2018-12-01T06:41:00.513Z,5.77
2018-12-01T06:43:27.696Z,6.63
2018-12-01T06:45:54.869Z,4.70
2018-12-01T06:48:22.052Z,5.27
2018-12-01T06:50:49.239Z,6.00
2018-12-01T06:53:16.428Z,5.70
2018-12-01T06:55:43.589Z,6.17
2018-12-01T06:58:10.779Z,6.87
2018-12-01T07:00:37.965Z,6.33
2018-12-01T07:03:05.273Z,7.33
2018-12-01T07:05:32.514Z,8.23
2018-12-01T07:07:59.744Z,8.80
2018-12-01T07:10:27.175Z,8.23
2018-12-01T07:12:55.393Z,8.90
2018-12-01T07:15:23.465Z,7.37
2018-12-01T07:17:50.659Z,7.80
2018-12-01T07:20:17.859Z,9.20
2018-12-01T07:22:45.037Z,8.73
2018-12-01T07:25:12.234Z,9.50
2018-12-01T07:27:39.401Z,9.47
2018-12-01T07:30:08.748Z,7.10
2018-12-01T07:32:35.945Z,9.23
2018-12-01T07:35:03.296Z,7.87
2018-12-01T07:37:30.475Z,8.70
2018-12-01T07:39:57.631Z,8.33
2018-12-01T07:42:24.829Z,8.97
2018-12-01T07:44:52.003Z,9.10
2018-12-01T07:47:19.192Z,8.97
2018-12-01T07:49:46.375Z,8.10
2018-12-01T07:52:13.584Z,9.80
2018-12-01T07:54:40.750Z,8.40
2018-12-01T07:57:07.951Z,9.20
2018-12-01T07:59:35.157Z,7.50
2018-12-01T08:02:02.691Z,8.50
2018-12-01T08:04:29.852Z,9.00
2018-12-01T08:06:57.048Z,6.70
2018-12-01T08:09:24.250Z,8.50
2018-12-01T08:11:51.416Z,8.97
2018-12-01T08:14:18.596Z,10.37
2018-12-01T08:16:45.778Z,9.63
2018-12-01T08:19:13.149Z,10.70
2018-12-01T08:21:40.403Z,11.23
2018-12-01T08:24:07.581Z,12.90
2018-12-01T08:26:34.789Z,13.00
2018-12-01T08:29:02.199Z,10.60
2018-12-01T08:31:29.625Z,11.90
2018-12-01T08:33:56.604Z,12.67
2018-12-01T08:36:23.790Z,14.10
2018-12-01T08:38:50.984Z,13.08
2018-12-01T08:41:18.173Z,13.90
2018-12-01T08:43:45.348Z,14.13
2018-12-01T08:46:12.664Z,12.73
2018-12-01T08:48:39.840Z,12.20
2018-12-01T08:51:07.036Z,12.10
2018-12-01T08:53:34.297Z,13.00
2018-12-01T08:56:01.483Z,12.87
2018-12-01T08:58:28.646Z,12.57
2018-12-01T09:00:55.866Z,14.20
2018-12-01T09:03:23.357Z,12.90
2018-12-01T09:05:50.803Z,11.03
2018-12-01T09:08:17.992Z,12.10
2018-12-01T09:10:45.161Z,12.00
2018-12-01T09:13:12.352Z,12.37
2018-12-01T09:15:39.886Z,13.07
2018-12-01T09:18:07.082Z,12.10
2018-12-01T09:20:34.296Z,12.60
2018-12-01T09:23:02.110Z,11.97
2018-12-01T09:25:29.328Z,11.63
2018-12-01T09:27:56.666Z,12.57
2018-12-01T09:30:24.482Z,12.10
2018-12-01T09:32:52.228Z,12.83
2018-12-01T09:35:19.419Z,11.57
2018-12-01T09:37:46.714Z,12.50
2018-12-01T09:40:15.085Z,12.70
2018-12-01T09:42:42.505Z,12.20
2018-12-01T09:45:11.055Z,13.07
2018-12-01T09:47:38.222Z,12.07
2018-12-01T09:50:07.040Z,12.67
2018-12-01T09:52:34.222Z,12.70
2018-12-01T09:55:02.772Z,12.97
2018-12-01T09:57:29.979Z,13.13
2018-12-01T09:59:57.204Z,14.00
2018-12-01T10:02:24.410Z,13.13
2018-12-01T10:04:51.581Z,13.07
2018-12-01T10:07:18.794Z,14.40
2018-12-01T10:09:46.089Z,12.83
2018-12-01T10:12:13.375Z,13.40
2018-12-01T10:14:40.647Z,13.30
2018-12-01T10:17:07.854Z,12.87
2018-12-01T10:19:35.042Z,12.63
2018-12-01T10:22:02.618Z,12.10
2018-12-01T10:24:29.784Z,13.63
2018-12-01T10:26:56.977Z,13.27
2018-12-01T10:29:24.160Z,12.77
2018-12-01T10:31:51.341Z,12.83
2018-12-01T10:34:18.536Z,12.93
2018-12-01T10:36:45.712Z,14.00
2018-12-01T10:39:12.925Z,12.67
2018-12-01T10:41:40.087Z,11.57
2018-12-01T10:44:07.285Z,11.77
2018-12-01T10:46:34.484Z,13.13
2018-12-01T10:49:02.313Z,11.47
2018-12-01T10:51:29.502Z,10.70
2018-12-01T10:53:56.666Z,10.47
2018-12-01T10:56:23.866Z,10.60
2018-12-01T10:58:51.025Z,9.90
2018-12-01T11:01:23.649Z,9.73
2018-12-01T11:03:50.834Z,9.27
2018-12-01T11:06:18.623Z,10.30
2018-12-01T11:08:45.845Z,10.03
2018-12-01T11:11:13.033Z,11.03
2018-12-01T11:13:40.239Z,10.17
2018-12-01T11:16:07.499Z,9.90
2018-12-01T11:18:34.908Z,9.43
2018-12-01T11:21:02.238Z,9.50
2018-12-01T11:23:29.466Z,10.10
2018-12-01T11:25:56.641Z,10.17
2018-12-01T11:28:23.865Z,11.03
2018-12-01T11:30:51.035Z,11.50
2018-12-01T11:33:18.201Z,11.27
2018-12-01T11:35:45.409Z,10.17
2018-12-01T11:38:12.596Z,10.23
2018-12-01T11:40:40.686Z,10.83
2018-12-01T11:43:08.306Z,9.90
2018-12-01T11:45:35.488Z,10.10
2018-12-01T11:48:03.716Z,9.70
2018-12-01T11:50:30.897Z,10.23
2018-12-01T11:52:58.093Z,10.30
2018-12-01T11:55:26.407Z,10.27
2018-12-01T11:57:53.748Z,10.57
2018-12-01T12:00:22.552Z,10.20
2018-12-01T12:02:49.739Z,9.17
2018-12-01T12:05:17.088Z,8.70
2018-12-01T12:07:49.964Z,9.40
2018-12-01T12:10:17.160Z,9.37
2018-12-01T12:12:44.344Z,9.17
2018-12-01T12:15:11.558Z,8.70
2018-12-01T12:17:38.849Z,8.50
2018-12-01T12:20:07.176Z,9.30
2018-12-01T12:22:34.414Z,8.80
2018-12-01T12:25:02.297Z,7.60
2018-12-01T12:27:29.493Z,9.53
2018-12-01T12:29:56.661Z,9.10
2018-12-01T12:32:23.849Z,9.60
2018-12-01T12:34:51.035Z,10.27
2018-12-01T12:37:18.199Z,9.03
2018-12-01T12:39:45.393Z,10.70
2018-12-01T12:42:12.843Z,10.53
2018-12-01T12:44:40.028Z,9.77
2018-12-01T12:47:07.253Z,9.13
2018-12-01T12:49:34.452Z,11.20
2018-12-01T12:52:05.825Z,8.13
2018-12-01T12:54:33.012Z,8.93
2018-12-01T12:57:00.183Z,9.23
2018-12-01T12:59:27.348Z,8.87
2018-12-01T13:01:54.545Z,7.73
2018-12-01T13:04:21.744Z,8.50
2018-12-01T13:06:48.917Z,8.47
2018-12-01T13:09:16.075Z,7.43
2018-12-01T13:11:43.273Z,8.20
2018-12-01T13:14:10.433Z,8.70
2018-12-01T13:16:37.622Z,8.30
2018-12-01T13:19:05.113Z,7.70
2018-12-01T13:21:32.329Z,7.77
2018-12-01T13:23:59.510Z,9.70
2018-12-01T13:26:26.679Z,8.30
2018-12-01T13:28:53.862Z,8.60
2018-12-01T13:31:21.048Z,8.07
2018-12-01T13:33:48.245Z,8.10
2018-12-01T13:36:15.469Z,7.10
2018-12-01T13:38:42.637Z,8.07
2018-12-01T13:41:09.832Z,7.50
2018-12-01T13:43:37.009Z,9.00
2018-12-01T13:46:04.251Z,9.10
2018-12-01T13:48:31.404Z,9.80
2018-12-01T13:50:58.609Z,9.50
2018-12-01T13:53:25.779Z,8.67
2018-12-01T13:55:53.066Z,9.50
2018-12-01T13:58:20.230Z,9.60
2018-12-01T14:00:47.389Z,8.90
2018-12-01T14:03:14.598Z,8.10
2018-12-01T14:05:41.960Z,8.50
2018-12-01T14:08:09.133Z,7.80
2018-12-01T14:10:37.546Z,7.80
2018-12-01T14:13:06.065Z,8.57
2018-12-01T14:15:33.244Z,8.70
2018-12-01T14:18:00.446Z,8.27
2018-12-01T14:20:27.652Z,8.07
2018-12-01T14:22:54.823Z,7.70
2018-12-01T14:25:22.333Z,7.20
2018-12-01T14:27:53.196Z,8.00
2018-12-01T14:30:20.417Z,8.23
2018-12-01T14:32:47.625Z,7.50
2018-12-01T14:35:16.349Z,7.90
2018-12-01T14:37:43.884Z,7.90
2018-12-01T14:40:11.684Z,9.27
2018-12-01T14:42:38.886Z,8.83
2018-12-01T14:45:07.847Z,9.20
2018-12-01T14:47:35.417Z,8.47
2018-12-01T14:50:02.941Z,8.47
2018-12-01T14:52:30.125Z,8.40
2018-12-01T14:54:57.304Z,8.50
2018-12-01T14:57:24.499Z,8.40
2018-12-01T14:59:51.657Z,9.00
2018-12-01T15:02:18.857Z,8.00
2018-12-01T15:04:46.013Z,8.50
2018-12-01T15:07:13.180Z,7.90
2018-12-01T15:09:40.376Z,9.00
2018-12-01T15:12:07.536Z,7.90
2018-12-01T15:14:34.704Z,8.30
2018-12-01T15:17:02.117Z,8.53
2018-12-01T15:19:29.313Z,7.77
2018-12-01T15:21:56.473Z,9.07
2018-12-01T15:24:23.640Z,8.30
2018-12-01T15:26:50.829Z,8.30
2018-12-01T15:29:18.180Z,8.03
2018-12-01T15:31:45.361Z,8.27
2018-12-01T15:34:12.672Z,8.13
2018-12-01T15:36:39.858Z,9.90
2018-12-01T15:39:09.453Z,10.60
2018-12-01T15:41:36.672Z,10.10
2018-12-01T15:44:03.862Z,8.53
2018-12-01T15:46:31.081Z,6.90
2018-12-01T15:48:58.256Z,7.00
2018-12-01T15:51:25.633Z,7.33
2018-12-01T15:53:52.813Z,7.33
2018-12-01T15:56:19.980Z,7.37
2018-12-01T15:58:47.186Z,7.23
2018-12-01T16:01:14.368Z,7.33
2018-12-01T16:03:41.574Z,6.30
2018-12-01T16:06:08.780Z,7.30
2018-12-01T16:08:36.857Z,6.57
2018-12-01T16:11:04.448Z,7.30
2018-12-01T16:13:31.636Z,6.70
2018-12-01T16:15:59.877Z,6.47
2018-12-01T16:18:27.106Z,5.73
2018-12-01T16:20:54.790Z,5.90
2018-12-01T16:23:22.006Z,5.97
2018-12-01T16:25:49.174Z,5.50
2018-12-01T16:28:16.372Z,4.90
2018-12-01T16:30:44.953Z,5.40
2018-12-01T16:33:12.971Z,5.73
2018-12-01T16:35:40.129Z,5.13
2018-12-01T16:38:08.120Z,4.83
2018-12-01T16:40:39.676Z,5.20
2018-12-01T16:43:08.106Z,5.13
2018-12-01T16:45:35.250Z,5.50
2018-12-01T16:48:03.013Z,5.30
2018-12-01T16:50:30.206Z,5.17
2018-12-01T16:52:57.368Z,5.17
2018-12-01T16:55:24.526Z,5.20
2018-12-01T16:57:51.704Z,5.93
2018-12-01T17:00:19.419Z,6.70
2018-12-01T17:02:47.258Z,5.50
2018-12-01T17:05:14.986Z,6.60
2018-12-01T17:07:42.147Z,7.30
2018-12-01T17:10:13.032Z,6.67
2018-12-01T17:12:40.283Z,6.90
2018-12-01T17:15:11.341Z,7.93
2018-12-01T17:17:38.508Z,7.10
2018-12-01T17:20:07.636Z,7.40
2018-12-01T17:22:34.796Z,8.60
2018-12-01T17:25:02.423Z,8.63
2018-12-01T17:27:29.613Z,8.70
2018-12-01T17:29:56.785Z,8.80
2018-12-01T17:32:23.961Z,7.63
2018-12-01T17:34:51.120Z,7.97
2018-12-01T17:37:18.309Z,9.20
2018-12-01T17:39:45.484Z,6.63
2018-12-01T17:42:12.667Z,7.00
2018-12-01T17:44:39.861Z,7.10
2018-12-01T17:47:07.050Z,7.60
2018-12-01T17:49:34.213Z,6.60
2018-12-01T17:52:01.425Z,7.37
2018-12-01T17:54:28.601Z,6.57
2018-12-01T17:56:55.776Z,6.23
2018-12-01T17:59:22.960Z,7.93
2018-12-01T18:01:50.137Z,7.40
2018-12-01T18:04:17.407Z,7.23
2018-12-01T18:06:44.602Z,7.47
2018-12-01T18:09:11.801Z,7.10
2018-12-01T18:11:39.008Z,6.03
2018-12-01T18:14:07.668Z,7.00
2018-12-01T18:16:38.103Z,6.07
2018-12-01T18:19:06.158Z,5.53
2018-12-01T18:21:33.528Z,5.77
2018-12-01T18:24:03.417Z,6.40
2018-12-01T18:26:32.294Z,6.37
2018-12-01T18:29:02.061Z,5.70
2018-12-01T18:31:30.608Z,5.70
2018-12-01T18:34:01.873Z,6.60
2018-12-01T18:36:29.076Z,5.97
2018-12-01T18:38:56.492Z,6.23
2018-12-01T18:41:23.658Z,6.93
2018-12-01T18:43:50.841Z,6.37
2018-12-01T18:46:18.029Z,5.23
2018-12-01T18:48:45.631Z,6.00
2018-12-01T18:51:12.887Z,5.80
2018-12-01T18:53:40.710Z,5.97
2018-12-01T18:56:09.341Z,6.13
2018-12-01T18:58:37.467Z,5.50
2018-12-01T19:01:06.347Z,4.73
2018-12-01T19:03:35.781Z,4.90
2018-12-01T19:06:03.562Z,5.10
2018-12-01T19:08:31.902Z,5.77
2018-12-01T19:10:59.776Z,5.20
2018-12-01T19:13:28.614Z,4.97
2018-12-01T19:15:56.637Z,5.37
2018-12-01T19:18:24.297Z,6.00
2018-12-01T19:20:52.737Z,5.27
2018-12-01T19:23:20.549Z,5.90
2018-12-01T19:25:49.134Z,5.50
2018-12-01T19:28:17.235Z,7.00
2018-12-01T19:30:45.356Z,6.50
2018-12-01T19:33:19.180Z,6.93
2018-12-01T19:35:48.066Z,8.27
2018-12-01T19:38:17.177Z,7.20
2018-12-01T19:40:45.752Z,7.60
2018-12-01T19:43:13.393Z,6.70
2018-12-01T19:45:40.629Z,6.60
2018-12-01T19:48:08.257Z,6.70
2018-12-01T19:50:35.940Z,6.47
2018-12-01T19:53:03.117Z,6.63
2018-12-01T19:55:30.549Z,6.13
2018-12-01T19:57:57.737Z,9.80
2018-12-01T20:00:25.580Z,5.67
2018-12-01T20:02:52.782Z,7.13
2018-12-01T20:05:20.444Z,6.40
2018-12-01T20:07:48.808Z,5.80
2018-12-01T20:10:17.737Z,4.90
2018-12-01T20:12:46.624Z,4.80
2018-12-01T20:15:25.474Z,6.00
2018-12-01T20:17:52.648Z,4.70
2018-12-01T20:20:19.852Z,5.43
2018-12-01T20:22:47.003Z,5.27
2018-12-01T20:25:14.377Z,5.00
2018-12-01T20:27:41.596Z,5.37
2018-12-01T20:30:13.793Z,5.40
2018-12-01T20:32:40.985Z,6.00
2018-12-01T20:35:08.693Z,6.30
2018-12-01T20:37:35.869Z,6.27
2018-12-01T20:40:03.941Z,5.80
2018-12-01T20:42:31.124Z,5.50
2018-12-01T20:44:58.319Z,6.90
2018-12-01T20:47:25.513Z,7.20
2018-12-01T20:49:52.695Z,6.93
2018-12-01T20:52:19.864Z,7.60
2018-12-01T20:54:47.151Z,7.27
2018-12-01T20:57:16.092Z,6.37
2018-12-01T20:59:43.269Z,8.33
2018-12-01T21:02:10.457Z,8.77
2018-12-01T21:04:37.616Z,7.63
2018-12-01T21:07:04.971Z,8.73
2018-12-01T21:09:32.300Z,7.50
2018-12-01T21:11:59.679Z,7.30
2018-12-01T21:14:26.874Z,8.77
2018-12-01T21:16:54.035Z,8.50
2018-12-01T21:19:21.229Z,8.10
2018-12-01T21:21:48.388Z,7.17
2018-12-01T21:24:15.547Z,7.00
2018-12-01T21:26:42.737Z,7.60
2018-12-01T21:29:09.892Z,7.67
2018-12-01T21:31:37.225Z,7.53
2018-12-01T21:34:04.781Z,8.30
2018-12-01T21:36:31.941Z,8.87
2018-12-01T21:38:59.126Z,8.80
2018-12-01T21:41:26.345Z,8.07
2018-12-01T21:43:53.531Z,8.60
2018-12-01T21:46:20.716Z,7.93
2018-12-01T21:48:47.909Z,8.30
2018-12-01T21:51:15.098Z,9.60
2018-12-01T21:53:42.292Z,10.17
2018-12-01T21:56:09.462Z,10.60
2018-12-01T21:58:36.696Z,10.23
2018-12-01T22:01:03.889Z,11.57
2018-12-01T22:03:31.298Z,10.63
2018-12-01T22:05:59.416Z,10.07
2018-12-01T22:08:26.779Z,9.93
2018-12-01T22:10:54.647Z,8.67
2018-12-01T22:13:22.212Z,9.13
2018-12-01T22:15:49.156Z,9.33
2018-12-01T22:18:16.369Z,8.50
2018-12-01T22:20:43.573Z,8.10
2018-12-01T22:23:10.767Z,7.83
2018-12-01T22:25:38.069Z,7.10
2018-12-01T22:28:06.355Z,7.17
2018-12-01T22:30:33.565Z,7.13
2018-12-01T22:33:00.729Z,6.70
2018-12-01T22:35:28.460Z,6.90
2018-12-01T22:37:56.083Z,6.47
2018-12-01T22:40:30.969Z,6.90
2018-12-01T22:42:58.913Z,6.27
2018-12-01T22:45:26.078Z,5.53
2018-12-01T22:47:53.258Z,5.13
2018-12-01T22:50:20.880Z,5.27
2018-12-01T22:52:48.225Z,5.60
2018-12-01T22:55:16.010Z,4.87
2018-12-01T22:57:44.025Z,5.87
2018-12-01T23:00:16.004Z,5.40
2018-12-01T23:02:43.218Z,5.13
2018-12-01T23:05:10.396Z,4.47
2018-12-01T23:07:37.576Z,4.30
2018-12-01T23:10:06.689Z,3.80
2018-12-01T23:12:33.832Z,3.50
2018-12-01T23:15:01.825Z,3.37
2018-12-01T23:17:28.984Z,2.77
2018-12-01T23:19:56.173Z,3.43
2018-12-01T23:22:23.344Z,2.73
2018-12-01T23:24:50.537Z,2.90
2018-12-01T23:27:17.688Z,2.80
2018-12-01T23:29:44.851Z,2.40
2018-12-01T23:32:12.033Z,2.83
2018-12-01T23:34:39.227Z,2.00
2018-12-01T23:37:06.454Z,2.20
2018-12-01T23:39:33.637Z,2.30
2018-12-01T23:42:01.199Z,2.63
2018-12-01T23:44:28.833Z,2.40
2018-12-01T23:46:56.245Z,2.87
2018-12-01T23:49:23.408Z,2.37
2018-12-01T23:51:50.596Z,2.70
2018-12-01T23:54:17.793Z,2.57
2018-12-01T23:56:44.944Z,2.53
2018-12-01T23:59:12.136Z,2.50
